Time;durP1;ratioP1;P1;durP2;ratioP2;P2;SDS_P1;SDS_P2;PMS_P1;PMS_P2;Temp;Humidity;BMP_temperature;BMP_pressure;BME280_temperature;BME280_humidity;BME280_pressure;Samples;Min_cycle;Max_cycle;Signal;HPM_P1;HPM_P2
2023/08/11 00:00:21;;;;;;;5.37;2.00;;;;;;;17.97;88.72;95581.06;4944871;28;20305;-74
2023/08/11 00:02:47;;;;;;;4.30;2.27;;;;;;;17.97;88.46;95580.25;4935830;28;20283;-74
2023/08/11 00:05:12;;;;;;;3.30;2.00;;;;;;;17.74;90.98;95583.66;4941442;28;20634;-75
2023/08/11 00:07:37;;;;;;;2.30;1.90;;;;;;;17.59;92.55;95585.94;4961683;28;20251;-75
2023/08/11 00:10:05;;;;;;;5.67;2.10;;;;;;;17.48;91.93;95584.03;4950250;28;20275;-74
2023/08/11 00:12:30;;;;;;;3.17;2.13;;;;;;;17.18;93.94;95581.38;4952272;28;20332;-74
2023/08/11 00:14:56;;;;;;;5.07;2.20;;;;;;;17.20;93.86;95575.84;4947136;28;21021;-74
2023/08/11 00:17:21;;;;;;;3.20;2.00;;;;;;;17.05;94.87;95570.97;4929259;28;20237;-75
2023/08/11 00:19:47;;;;;;;2.20;2.00;;;;;;;17.25;93.57;95568.88;4952626;28;20252;-74
2023/08/11 00:22:12;;;;;;;4.20;2.20;;;;;;;17.31;92.29;95570.63;4953611;28;20654;-71
2023/08/11 00:24:38;;;;;;;4.23;2.20;;;;;;;17.13;93.44;95565.38;4929259;28;20257;-70
2023/08/11 00:27:04;;;;;;;3.93;2.00;;;;;;;17.01;93.55;95561.88;4969453;28;20828;-71
2023/08/11 00:29:31;;;;;;;2.50;2.00;;;;;;;17.21;92.83;95569.53;4954332;28;20229;-71
2023/08/11 00:31:56;;;;;;;5.00;2.20;;;;;;;17.18;93.08;95570.00;4935841;28;20236;-71
2023/08/11 00:34:22;;;;;;;4.73;2.20;;;;;;;17.12;92.73;95562.97;4944781;28;20233;-71
2023/08/11 00:36:48;;;;;;;4.33;2.13;;;;;;;17.04;93.43;95572.00;4928640;28;20240;-71
2023/08/11 00:39:13;;;;;;;5.33;2.13;;;;;;;17.16;93.47;95572.06;4937861;28;20698;-72
2023/08/11 00:41:39;;;;;;;4.37;2.30;;;;;;;17.07;93.81;95563.63;4954128;28;20232;-71
2023/08/11 00:44:04;;;;;;;3.47;2.27;;;;;;;17.14;94.57;95574.13;4954739;28;20227;-71
2023/08/11 00:46:30;;;;;;;8.43;2.33;;;;;;;17.07;94.06;95574.22;4945862;28;20232;-70
2023/08/11 00:48:55;;;;;;;4.17;2.10;;;;;;;17.09;94.69;95573.97;4943781;28;20236;-71
2023/08/11 00:51:22;;;;;;;3.27;1.97;;;;;;;17.23;94.39;95575.41;4945763;28;20249;-70
2023/08/11 00:53:49;;;;;;;5.37;2.23;;;;;;;17.21;94.72;95577.47;4938785;28;20212;-71
2023/08/11 00:56:15;;;;;;;3.47;2.20;;;;;;;17.12;95.34;95574.34;4938296;28;20239;-71
2023/08/11 00:58:41;;;;;;;4.53;2.20;;;;;;;17.01;95.47;95567.16;4942217;28;20224;-72
2023/08/11 01:01:10;;;;;;;5.63;2.13;;;;;;;16.95;95.74;95580.47;4948719;28;20235;-75
2023/08/11 01:03:36;;;;;;;4.30;2.20;;;;;;;16.93;95.96;95571.97;4927017;28;20243;-76
2023/08/11 01:06:14;;;;;;;3.03;2.10;;;;;;;17.05;95.82;95578.13;4942243;28;20342;-74
2023/08/11 01:08:52;;;;;;;5.00;2.23;;;;;;;16.93;96.63;95572.78;4954481;28;20245;-76
2023/08/11 01:11:40;;;;;;;3.13;2.27;;;;;;;16.72;97.29;95573.22;4939361;28;20242;-75
2023/08/11 01:14:18;;;;;;;3.63;2.27;;;;;;;16.57;98.10;95578.06;4982565;28;20244;-72
2023/08/11 01:16:49;;;;;;;4.47;2.33;;;;;;;16.64;98.26;95576.16;4935479;28;20236;-72
2023/08/11 01:19:27;;;;;;;4.23;2.27;;;;;;;16.81;97.13;95579.84;4936459;28;20257;-71
2023/08/11 01:21:53;;;;;;;3.63;2.20;;;;;;;16.84;96.77;95574.91;4945364;28;20276;-71
2023/08/11 01:24:19;;;;;;;4.27;2.13;;;;;;;16.80;96.38;95575.56;4931294;29;20253;-71
2023/08/11 01:26:45;;;;;;;2.97;2.20;;;;;;;16.62;97.09;95572.94;5035273;28;20723;-71
2023/08/11 01:29:11;;;;;;;3.33;2.23;;;;;;;16.48;98.73;95584.66;4973287;28;20886;-71
2023/08/11 01:31:39;;;;;;;3.60;2.30;;;;;;;16.54;97.71;95576.69;4928069;28;20314;-73
2023/08/11 01:34:09;;;;;;;4.60;2.20;;;;;;;16.46;97.78;95582.22;4962380;28;20230;-70
2023/08/11 01:36:36;;;;;;;5.73;2.17;;;;;;;16.47;97.94;95583.84;4940524;29;20711;-70
2023/08/11 01:39:04;;;;;;;3.03;2.30;;;;;;;16.61;97.55;95576.59;4926462;28;20778;-72
2023/08/11 01:41:31;;;;;;;4.33;2.60;;;;;;;16.58;97.49;95579.69;4969434;28;20232;-71
2023/08/11 01:44:01;;;;;;;2.90;2.30;;;;;;;16.60;97.50;95573.13;4917853;28;20260;-71
2023/08/11 01:46:27;;;;;;;6.33;2.53;;;;;;;16.56;97.76;95571.16;4947512;28;20245;-70
2023/08/11 01:48:54;;;;;;;4.20;2.73;;;;;;;16.60;97.76;95569.69;4938301;28;20228;-71
2023/08/11 01:51:20;;;;;;;3.80;2.60;;;;;;;16.25;99.09;95573.91;4930068;28;20248;-71
2023/08/11 01:53:45;;;;;;;3.70;2.60;;;;;;;16.33;98.53;95577.06;4926540;29;20244;-70
2023/08/11 01:56:11;;;;;;;3.70;2.40;;;;;;;16.29;99.82;95581.16;4945092;28;20248;-72
2023/08/11 01:58:37;;;;;;;3.97;2.70;;;;;;;16.15;99.76;95572.56;4924620;28;20244;-71
2023/08/11 02:01:03;;;;;;;4.33;2.80;;;;;;;16.15;99.98;95577.03;4931139;29;20257;-71
2023/08/11 02:03:28;;;;;;;4.00;2.73;;;;;;;16.19;100.00;95573.72;4933651;28;20240;-70
2023/08/11 02:05:55;;;;;;;3.80;2.77;;;;;;;16.27;99.66;95582.41;4930380;28;20264;-69
2023/08/11 02:08:21;;;;;;;5.03;3.17;;;;;;;16.14;99.86;95581.50;4935885;29;20243;-70
2023/08/11 02:10:46;;;;;;;4.03;2.97;;;;;;;16.16;99.80;95578.66;4929280;28;20244;-71
2023/08/11 02:13:12;;;;;;;5.17;3.00;;;;;;;16.13;100.00;95581.72;4923176;29;20228;-70
2023/08/11 02:15:39;;;;;;;4.23;3.00;;;;;;;16.39;99.19;95570.91;4981691;28;20236;-71
2023/08/11 02:18:04;;;;;;;4.43;2.90;;;;;;;16.39;99.37;95572.72;4917243;28;20240;-70
2023/08/11 02:20:32;;;;;;;5.30;2.73;;;;;;;16.36;99.81;95576.63;4985584;28;20236;-71
2023/08/11 02:22:58;;;;;;;4.60;2.80;;;;;;;16.25;99.59;95580.00;4974353;28;20904;-71
2023/08/11 02:25:25;;;;;;;4.60;2.90;;;;;;;16.38;100.00;95577.22;4923430;29;20229;-69
2023/08/11 02:27:51;;;;;;;3.80;2.70;;;;;;;16.58;99.01;95580.50;4924082;29;20237;-71
2023/08/11 02:30:18;;;;;;;5.17;2.70;;;;;;;16.67;98.24;95578.38;4979355;28;20943;-71
2023/08/11 02:32:46;;;;;;;3.30;2.43;;;;;;;16.83;96.73;95581.22;4917868;29;20711;-71
2023/08/11 02:35:12;;;;;;;3.47;2.40;;;;;;;16.97;96.11;95581.06;4915865;29;20309;-75
2023/08/11 02:37:39;;;;;;;3.80;2.60;;;;;;;17.04;96.13;95592.34;4919540;29;20324;-75
2023/08/11 02:40:09;;;;;;;3.40;2.33;;;;;;;17.05;95.81;95592.13;4979866;28;20262;-75
2023/08/11 02:42:37;;;;;;;3.93;2.43;;;;;;;16.96;96.57;95590.81;4933051;29;21010;-75
2023/08/11 02:45:04;;;;;;;4.13;2.40;;;;;;;16.84;96.94;95595.22;4996555;28;21010;-75
2023/08/11 02:47:30;;;;;;;2.80;2.40;;;;;;;16.88;96.83;95593.78;4920598;29;20949;-75
2023/08/11 02:49:55;;;;;;;6.00;2.53;;;;;;;16.90;96.04;95594.38;4968326;28;20220;-76
2023/08/11 02:52:21;;;;;;;2.60;2.20;;;;;;;17.02;95.91;95597.88;4968431;28;20253;-75
2023/08/11 02:54:46;;;;;;;4.87;2.50;;;;;;;17.07;96.04;95599.84;4939820;28;20233;-73
2023/08/11 02:57:12;;;;;;;3.07;2.40;;;;;;;16.99;95.81;95598.31;4918122;29;20230;-76
2023/08/11 02:59:37;;;;;;;6.33;2.40;;;;;;;17.10;95.25;95594.13;4977956;28;20710;-75
2023/08/11 03:02:03;;;;;;;6.67;2.50;;;;;;;16.96;96.04;95605.88;4932438;28;20241;-75
2023/08/11 03:04:29;;;;;;;3.03;2.30;;;;;;;16.81;97.36;95593.06;4929810;28;20234;-75
2023/08/11 03:06:54;;;;;;;2.63;2.23;;;;;;;16.67;98.69;95595.03;4975055;28;20236;-74
2023/08/11 03:09:20;;;;;;;4.43;2.47;;;;;;;16.61;98.42;95600.38;4959514;28;20237;-75
2023/08/11 03:11:45;;;;;;;4.40;2.40;;;;;;;16.70;98.75;95599.06;4934262;28;20272;-74
2023/08/11 03:14:11;;;;;;;2.93;2.37;;;;;;;16.78;98.21;95599.59;4907249;29;20782;-74
2023/08/11 03:16:36;;;;;;;3.07;2.30;;;;;;;16.91;97.57;95603.91;4912204;28;20241;-75
2023/08/11 03:19:02;;;;;;;2.67;2.40;;;;;;;16.86;97.33;95602.97;4938868;28;20233;-74
2023/08/11 03:21:27;;;;;;;3.73;2.40;;;;;;;16.91;97.35;95605.75;4933578;29;20290;-74
2023/08/11 03:23:53;;;;;;;3.93;2.27;;;;;;;16.88;97.43;95601.72;4990244;28;20235;-74
2023/08/11 03:26:20;;;;;;;3.03;2.40;;;;;;;16.88;97.18;95604.34;4912048;28;20238;-74
2023/08/11 03:28:46;;;;;;;5.40;2.53;;;;;;;16.88;97.10;95604.34;4919209;29;20237;-74
2023/08/11 03:31:11;;;;;;;4.00;2.30;;;;;;;16.93;95.88;95603.69;4918245;28;20245;-75
2023/08/11 03:33:38;;;;;;;6.67;2.70;;;;;;;16.99;96.15;95598.31;4917120;29;20264;-76
2023/08/11 03:36:04;;;;;;;5.33;2.80;;;;;;;17.08;95.83;95607.56;5016353;28;20639;-75
2023/08/11 03:38:30;;;;;;;6.43;2.90;;;;;;;17.05;95.64;95605.34;4914622;28;20240;-74
2023/08/11 03:40:55;;;;;;;6.07;2.63;;;;;;;17.06;95.15;95614.91;4926765;29;20237;-74
2023/08/11 03:43:21;;;;;;;4.83;2.57;;;;;;;17.02;95.55;95612.94;4934702;29;20248;-75
2023/08/11 03:45:47;;;;;;;5.40;2.70;;;;;;;16.90;96.51;95615.53;4978775;28;20237;-74
2023/08/11 03:48:12;;;;;;;4.07;2.63;;;;;;;16.90;96.88;95609.41;4935578;29;20228;-74
2023/08/11 03:50:38;;;;;;;5.83;2.43;;;;;;;16.97;95.87;95610.97;4934691;29;20238;-74
2023/08/11 03:53:04;;;;;;;6.10;2.80;;;;;;;17.02;95.89;95608.47;4931911;29;20648;-74
2023/08/11 03:55:29;;;;;;;5.77;2.50;;;;;;;17.10;95.45;95605.50;4932689;29;20228;-74
2023/08/11 03:57:56;;;;;;;4.93;2.70;;;;;;;17.17;94.96;95600.13;4919208;29;20271;-75
2023/08/11 04:00:26;;;;;;;4.90;2.40;;;;;;;17.17;95.05;95606.22;4931342;29;21195;-75
2023/08/11 04:02:53;;;;;;;4.23;2.40;;;;;;;17.11;95.81;95608.94;4920115;28;20303;-76
2023/08/11 04:05:19;;;;;;;4.00;2.83;;;;;;;17.03;96.85;95607.41;4935838;29;20359;-73
2023/08/11 04:07:44;;;;;;;4.10;2.70;;;;;;;17.03;96.80;95607.41;4901629;28;20253;-75
2023/08/11 04:10:15;;;;;;;6.40;2.90;;;;;;;16.89;97.98;95608.59;4932800;28;20911;-75
2023/08/11 04:12:40;;;;;;;3.70;2.33;;;;;;;16.85;97.66;95604.78;4938369;28;20265;-75
2023/08/11 04:15:07;;;;;;;5.83;2.40;;;;;;;16.87;98.56;95600.09;4942276;28;20243;-74
2023/08/11 04:17:33;;;;;;;5.53;2.70;;;;;;;16.98;96.30;95601.97;4954144;28;20331;-76
2023/08/11 04:20:00;;;;;;;4.50;2.70;;;;;;;17.09;95.62;95606.53;4968462;28;20350;-75
2023/08/11 04:22:25;;;;;;;7.83;2.70;;;;;;;17.23;95.14;95615.09;4949678;28;20245;-75
2023/08/11 04:24:51;;;;;;;4.73;2.80;;;;;;;17.10;96.58;95610.00;4950109;28;20237;-74
2023/08/11 04:27:17;;;;;;;5.13;2.50;;;;;;;17.13;95.52;95606.88;4953793;28;20333;-74
2023/08/11 04:29:42;;;;;;;5.93;3.00;;;;;;;17.20;95.31;95619.00;4958090;28;20224;-73
2023/08/11 04:32:09;;;;;;;5.50;2.90;;;;;;;17.28;95.03;95625.81;4949492;28;20243;-72
2023/08/11 04:34:36;;;;;;;7.93;2.97;;;;;;;17.30;94.47;95615.81;4975625;28;20787;-71
2023/08/11 04:37:04;;;;;;;4.50;2.70;;;;;;;17.25;94.98;95608.56;5020475;28;20228;-73
2023/08/11 04:39:31;;;;;;;3.90;2.80;;;;;;;17.32;94.69;95613.75;4936266;28;20233;-72
2023/08/11 04:41:57;;;;;;;4.30;2.80;;;;;;;17.36;94.49;95615.72;4929594;28;20412;-71
2023/08/11 04:44:23;;;;;;;5.93;2.90;;;;;;;17.35;94.61;95622.06;4970205;28;20717;-69
2023/08/11 04:46:49;;;;;;;5.93;2.80;;;;;;;17.38;94.79;95624.28;4985689;28;20228;-71
2023/08/11 04:49:14;;;;;;;5.27;3.10;;;;;;;17.41;94.63;95626.44;4940842;28;21236;-69
2023/08/11 04:51:40;;;;;;;5.43;2.87;;;;;;;17.45;94.29;95619.69;4932280;29;20241;-71
2023/08/11 04:54:07;;;;;;;5.90;2.90;;;;;;;17.53;94.35;95631.81;4951631;28;20306;-71
2023/08/11 04:56:32;;;;;;;5.60;2.70;;;;;;;17.42;94.06;95635.22;4920842;28;20294;-71
2023/08/11 04:58:58;;;;;;;4.97;3.00;;;;;;;17.53;94.35;95638.97;4937019;28;20228;-72
2023/08/11 05:01:24;;;;;;;6.17;3.00;;;;;;;17.59;94.01;95638.06;4937636;28;21072;-71
2023/08/11 05:03:50;;;;;;;4.00;2.70;;;;;;;17.53;93.65;95633.69;4930759;28;20237;-72
2023/08/11 05:06:16;;;;;;;4.47;2.87;;;;;;;17.54;93.99;95630.81;4919526;28;20270;-71
2023/08/11 05:08:43;;;;;;;4.60;2.90;;;;;;;17.61;94.10;95638.63;4935048;28;20284;-71
2023/08/11 05:11:09;;;;;;;5.87;3.00;;;;;;;17.83;93.10;95635.28;4955688;28;21005;-71
2023/08/11 05:13:35;;;;;;;3.70;2.97;;;;;;;18.68;89.41;95649.78;4934319;28;20255;-69
2023/08/11 05:16:01;;;;;;;4.40;2.80;;;;;;;20.63;79.90;95644.94;4959048;28;20244;-71
2023/08/11 05:18:27;;;;;;;6.30;3.00;;;;;;;19.33;85.62;95652.19;4930082;28;20282;-71
2023/08/11 05:20:53;;;;;;;6.20;3.10;;;;;;;18.77;87.90;95653.69;4929154;28;20236;-71
2023/08/11 05:23:18;;;;;;;5.73;3.57;;;;;;;18.77;89.05;95651.03;4934251;28;20598;-71
2023/08/11 05:25:44;;;;;;;10.00;3.93;;;;;;;18.94;88.88;95653.00;4937778;28;20232;-71
2023/08/11 05:28:10;;;;;;;6.47;4.10;;;;;;;18.79;89.26;95654.25;4960554;28;20316;-71
2023/08/11 05:30:36;;;;;;;8.63;3.70;;;;;;;18.90;88.35;95654.47;4949353;28;20663;-72
2023/08/11 05:33:01;;;;;;;9.30;4.07;;;;;;;19.60;84.90;95655.13;4918739;28;20305;-71
2023/08/11 05:35:29;;;;;;;5.80;3.30;;;;;;;20.25;81.59;95663.50;4927444;28;20610;-71
2023/08/11 05:37:54;;;;;;;4.00;3.00;;;;;;;19.95;82.06;95669.88;4926782;28;20270;-71
2023/08/11 05:40:20;;;;;;;6.13;3.07;;;;;;;19.23;85.76;95665.25;4934365;28;20270;-72
2023/08/11 05:42:46;;;;;;;7.60;3.13;;;;;;;19.18;87.17;95663.31;4924309;28;20232;-72
2023/08/11 05:45:12;;;;;;;7.83;3.33;;;;;;;19.07;87.13;95664.16;4933525;28;20237;-73
2023/08/11 05:47:37;;;;;;;7.37;3.30;;;;;;;18.96;86.91;95664.19;4933801;28;20233;-73
2023/08/11 05:50:03;;;;;;;6.43;3.50;;;;;;;18.68;86.95;95662.22;4970649;28;20305;-72
2023/08/11 05:52:28;;;;;;;7.47;3.30;;;;;;;18.81;88.05;95662.81;4917943;28;21070;-72
2023/08/11 05:54:54;;;;;;;4.80;3.23;;;;;;;18.77;87.43;95660.84;4949530;28;20240;-71
2023/08/11 05:57:20;;;;;;;5.07;3.70;;;;;;;18.79;87.61;95662.22;4931054;28;20240;-71
2023/08/11 05:59:45;;;;;;;8.27;3.60;;;;;;;18.81;87.61;95673.44;4932512;28;20267;-72
2023/08/11 06:02:11;;;;;;;6.40;3.50;;;;;;;18.72;88.14;95666.81;4935216;28;20241;-72
2023/08/11 06:04:37;;;;;;;6.77;3.60;;;;;;;18.71;88.68;95672.38;4945897;28;20236;-72
2023/08/11 06:07:03;;;;;;;3.93;3.47;;;;;;;18.80;88.33;95674.44;4941542;28;20667;-71
2023/08/11 06:09:29;;;;;;;5.53;3.43;;;;;;;18.74;88.35;95674.56;4918181;28;20358;-72
2023/08/11 06:11:55;;;;;;;8.00;3.77;;;;;;;18.76;87.76;95673.31;4931004;28;20240;-70
2023/08/11 06:14:20;;;;;;;6.27;3.60;;;;;;;18.70;87.70;95674.22;4942199;28;20272;-72
2023/08/11 06:16:46;;;;;;;6.60;3.67;;;;;;;18.65;87.12;95676.75;4931898;28;20267;-73
2023/08/11 06:19:12;;;;;;;5.13;3.40;;;;;;;18.54;88.04;95682.88;4932023;28;20228;-73
2023/08/11 06:21:38;;;;;;;5.73;3.63;;;;;;;18.61;88.49;95685.41;4930586;28;20320;-71
2023/08/11 06:24:04;;;;;;;5.30;3.67;;;;;;;18.70;88.28;95679.53;4947457;28;20345;-71
2023/08/11 06:26:29;;;;;;;8.37;3.60;;;;;;;18.73;86.97;95679.06;4948578;28;20792;-72
2023/08/11 06:28:55;;;;;;;6.30;3.70;;;;;;;18.67;88.05;95682.66;4934200;28;20232;-71
2023/08/11 06:31:21;;;;;;;7.77;3.80;;;;;;;18.76;88.75;95680.44;4946497;28;20237;-71
2023/08/11 06:33:47;;;;;;;5.97;3.80;;;;;;;18.80;89.69;95685.06;4932942;28;20297;-72
2023/08/11 06:36:13;;;;;;;6.70;3.77;;;;;;;18.77;87.61;95684.72;4935195;28;20658;-70
2023/08/11 06:38:38;;;;;;;6.67;3.90;;;;;;;18.80;87.45;95684.25;4927514;28;20974;-72
2023/08/11 06:41:04;;;;;;;5.97;3.73;;;;;;;18.81;85.96;95678.72;4919514;28;20252;-71
2023/08/11 06:43:30;;;;;;;5.87;3.83;;;;;;;18.86;87.45;95693.13;4934549;28;20229;-71
2023/08/11 06:45:55;;;;;;;6.33;4.03;;;;;;;18.79;86.15;95694.03;4922187;28;20236;-72
2023/08/11 06:48:21;;;;;;;5.80;3.70;;;;;;;18.79;86.45;95691.38;4931083;28;20229;-71
2023/08/11 06:50:46;;;;;;;7.00;4.23;;;;;;;18.91;86.21;95687.94;4905114;28;20229;-71
2023/08/11 06:53:12;;;;;;;8.33;3.87;;;;;;;18.94;85.71;95693.56;4949198;28;20233;-72
2023/08/11 06:55:37;;;;;;;5.57;3.90;;;;;;;18.99;84.75;95693.69;4933118;28;20411;-72
2023/08/11 06:58:03;;;;;;;5.57;3.87;;;;;;;18.84;86.04;95688.84;4944428;28;20805;-71
2023/08/11 07:00:28;;;;;;;7.30;3.77;;;;;;;18.97;86.19;95693.13;4915102;29;20655;-71
2023/08/11 07:02:54;;;;;;;6.57;3.80;;;;;;;19.07;85.88;95693.34;4931724;28;20886;-71
2023/08/11 07:05:20;;;;;;;5.87;3.80;;;;;;;19.16;85.76;95691.94;4938583;28;20242;-73
2023/08/11 07:07:46;;;;;;;6.13;4.20;;;;;;;19.16;85.30;95694.59;4946801;28;20240;-72
2023/08/11 07:10:12;;;;;;;6.83;3.93;;;;;;;19.19;85.40;95691.47;4943936;28;20616;-72
2023/08/11 07:12:37;;;;;;;6.57;3.60;;;;;;;19.24;83.95;95698.75;4933397;28;20229;-72
2023/08/11 07:15:03;;;;;;;5.73;4.03;;;;;;;19.28;84.83;95699.88;4943874;28;20241;-71
2023/08/11 07:17:29;;;;;;;7.77;4.10;;;;;;;19.28;83.78;95699.88;4947775;28;20327;-72
2023/08/11 07:19:54;;;;;;;6.27;3.97;;;;;;;19.33;83.91;95699.97;4950912;28;20237;-72
2023/08/11 07:22:20;;;;;;;5.23;4.00;;;;;;;19.34;82.97;95706.91;4944122;28;20236;-70
2023/08/11 07:24:45;;;;;;;7.73;3.77;;;;;;;19.36;83.88;95710.16;4937777;28;20241;-72
2023/08/11 07:27:11;;;;;;;7.67;4.40;;;;;;;19.44;83.33;95701.81;4939122;28;20236;-72
2023/08/11 07:29:36;;;;;;;9.57;4.03;;;;;;;19.56;83.46;95707.13;4948904;28;20225;-72
2023/08/11 07:32:03;;;;;;;8.77;4.53;;;;;;;19.50;81.85;95711.53;4937693;28;20243;-71
2023/08/11 07:34:29;;;;;;;7.47;3.97;;;;;;;19.53;81.22;95704.94;4968516;28;20671;-73
2023/08/11 07:36:55;;;;;;;6.67;4.20;;;;;;;19.64;82.08;95702.22;4910152;28;20287;-71
2023/08/11 07:39:20;;;;;;;6.87;4.20;;;;;;;19.64;81.53;95699.56;4937284;28;20236;-72
2023/08/11 07:41:49;;;;;;;7.37;4.17;;;;;;;19.62;81.73;95701.66;4928728;28;20907;-73
2023/08/11 07:44:15;;;;;;;6.87;4.27;;;;;;;19.79;81.51;95702.53;4945657;28;20778;-71
2023/08/11 07:46:40;;;;;;;6.83;4.00;;;;;;;19.86;82.59;95705.03;4919774;28;20260;-71
2023/08/11 07:49:06;;;;;;;7.60;4.37;;;;;;;19.87;81.14;95710.09;4964412;28;20232;-72
2023/08/11 07:51:32;;;;;;;7.13;4.30;;;;;;;19.92;81.75;95706.72;4939922;28;20382;-70
2023/08/11 07:53:57;;;;;;;6.90;3.87;;;;;;;19.96;78.21;95698.06;4933370;28;20252;-72
2023/08/11 07:56:23;;;;;;;6.10;3.77;;;;;;;20.07;77.35;95707.84;4949375;28;20236;-71
2023/08/11 07:58:48;;;;;;;7.57;3.77;;;;;;;20.10;76.89;95703.88;4924731;28;20233;-71
2023/08/11 08:01:14;;;;;;;6.13;4.10;;;;;;;20.23;77.75;95703.59;4935028;29;20247;-71
2023/08/11 08:03:40;;;;;;;7.73;4.10;;;;;;;20.29;78.69;95701.84;4950515;28;20311;-71
2023/08/11 08:06:06;;;;;;;7.07;4.20;;;;;;;20.34;76.90;95705.41;4990754;28;20798;-70
2023/08/11 08:08:33;;;;;;;7.23;4.00;;;;;;;20.44;77.61;95702.91;4939792;28;20228;-72
2023/08/11 08:11:00;;;;;;;6.60;4.10;;;;;;;20.54;76.91;95703.06;4946917;28;20352;-71
2023/08/11 08:13:26;;;;;;;4.97;3.93;;;;;;;20.62;76.67;95709.84;4939442;28;20335;-71
2023/08/11 08:15:51;;;;;;;7.07;3.93;;;;;;;20.50;75.58;95704.59;4964842;28;20245;-72
2023/08/11 08:18:17;;;;;;;6.83;4.23;;;;;;;20.51;75.74;95698.25;4951958;28;20318;-71
2023/08/11 08:20:42;;;;;;;7.10;4.00;;;;;;;20.65;76.50;95699.53;4950051;28;20243;-71
2023/08/11 08:23:08;;;;;;;7.80;4.00;;;;;;;20.76;76.08;95703.13;4940506;28;20233;-72
2023/08/11 08:25:33;;;;;;;5.40;3.87;;;;;;;20.89;75.57;95692.16;4936196;28;21234;-70
2023/08/11 08:27:59;;;;;;;5.77;3.83;;;;;;;20.95;74.38;95695.69;4965562;28;20328;-71
2023/08/11 08:30:24;;;;;;;5.87;3.73;;;;;;;21.05;73.73;95695.84;4945869;28;20699;-72
2023/08/11 08:32:50;;;;;;;5.93;3.67;;;;;;;21.22;73.10;95691.31;4950832;28;20275;-71
2023/08/11 08:35:16;;;;;;;7.17;3.67;;;;;;;21.29;73.14;95689.25;4952652;28;20702;-71
2023/08/11 08:37:41;;;;;;;5.77;3.30;;;;;;;21.34;73.37;95695.47;4935056;28;20237;-72
2023/08/11 08:40:08;;;;;;;4.40;3.70;;;;;;;21.27;72.04;95692.19;4939607;28;20259;-71
2023/08/11 08:42:34;;;;;;;5.47;3.87;;;;;;;21.22;70.58;95699.28;4936831;28;20247;-71
2023/08/11 08:44:59;;;;;;;4.57;3.23;;;;;;;21.22;70.62;95693.97;4992192;28;20229;-72
2023/08/11 08:47:26;;;;;;;5.40;3.50;;;;;;;21.41;72.15;95685.44;4951426;28;20245;-72
2023/08/11 08:49:51;;;;;;;8.50;3.40;;;;;;;21.56;70.25;95686.66;4925577;29;20348;-71
2023/08/11 08:52:17;;;;;;;5.73;3.43;;;;;;;21.70;71.29;95687.88;4991529;28;20412;-71
2023/08/11 08:54:43;;;;;;;4.82;3.38;;;;;;;21.69;67.64;95688.94;4918221;28;20233;-71
2023/08/11 08:57:09;;;;;;;5.78;3.50;;;;;;;21.71;67.57;95692.97;4940801;29;20725;-72
2023/08/11 08:59:38;;;;;;;6.40;3.22;;;;;;;21.91;66.83;95692.41;5012722;28;20761;-71
2023/08/11 09:02:06;;;;;;;3.97;3.13;;;;;;;22.02;66.49;95688.78;5024970;28;20232;-71
2023/08/11 09:04:32;;;;;;;3.92;3.10;;;;;;;22.10;65.52;95691.00;4919947;29;20365;-71
2023/08/11 09:06:58;;;;;;;4.75;3.17;;;;;;;22.22;66.21;95689.00;5013506;28;20248;-72
2023/08/11 09:09:23;;;;;;;4.28;3.60;;;;;;;22.41;66.77;95684.06;4921981;29;20232;-71
2023/08/11 09:11:50;;;;;;;5.60;3.28;;;;;;;22.56;66.86;95692.22;4911017;28;20273;-73
2023/08/11 09:14:17;;;;;;;6.88;2.80;;;;;;;22.77;64.54;95689.47;4924515;29;20276;-72
2023/08/11 09:16:43;;;;;;;4.78;3.25;;;;;;;22.88;64.19;95689.53;4928223;28;20274;-72
2023/08/11 09:19:11;;;;;;;3.77;3.30;;;;;;;22.91;64.43;95689.81;4933451;29;20241;-71
2023/08/11 09:21:37;;;;;;;4.13;3.22;;;;;;;22.98;63.33;95689.59;4934655;28;20234;-73
2023/08/11 09:24:03;;;;;;;4.22;3.33;;;;;;;22.78;64.58;95679.59;4933826;28;20720;-71
2023/08/11 09:26:29;;;;;;;5.10;3.47;;;;;;;22.93;64.39;95673.56;4946548;28;20244;-73
2023/08/11 09:28:54;;;;;;;6.55;3.72;;;;;;;22.94;65.45;95680.50;4977504;28;20780;-72
2023/08/11 09:31:24;;;;;;;5.17;3.33;;;;;;;22.87;64.61;95677.25;4924754;29;20245;-73
2023/08/11 09:33:49;;;;;;;6.57;3.47;;;;;;;23.08;63.76;95679.78;4934983;29;20694;-71
2023/08/11 09:36:17;;;;;;;5.68;3.22;;;;;;;22.94;62.31;95681.31;4918357;28;20299;-71
2023/08/11 09:38:46;;;;;;;5.05;3.40;;;;;;;22.82;64.78;95674.53;4974621;28;20327;-69
2023/08/11 09:41:12;;;;;;;3.83;3.20;;;;;;;22.72;63.10;95681.44;4923088;28;20371;-72
2023/08/11 09:43:38;;;;;;;4.80;3.50;;;;;;;22.55;64.37;95678.06;5015290;28;20311;-72
2023/08/11 09:46:03;;;;;;;5.25;3.10;;;;;;;22.53;64.25;95677.50;4927467;28;20328;-72
2023/08/11 09:48:29;;;;;;;5.25;3.40;;;;;;;22.78;65.44;95675.03;4969951;28;20244;-71
2023/08/11 09:50:56;;;;;;;6.72;3.42;;;;;;;23.10;63.51;95676.84;4966186;28;20233;-72
2023/08/11 09:53:22;;;;;;;3.45;3.15;;;;;;;23.23;65.07;95669.19;5004084;28;20280;-71
2023/08/11 09:55:49;;;;;;;4.85;3.58;;;;;;;23.30;63.59;95663.59;4948027;28;20232;-72
2023/08/11 09:58:14;;;;;;;5.47;3.67;;;;;;;23.31;64.81;95674.00;4936796;28;20627;-71
2023/08/11 10:00:40;;;;;;;5.07;3.53;;;;;;;23.55;63.55;95669.06;4952525;28;20232;-71
2023/08/11 10:03:09;;;;;;;4.05;3.50;;;;;;;23.55;62.53;95671.72;4927201;28;20267;-70
2023/08/11 10:05:42;;;;;;;5.80;3.50;;;;;;;23.54;62.54;95672.81;4946614;28;20240;-72
2023/08/11 10:08:09;;;;;;;5.25;3.55;;;;;;;23.57;63.68;95671.50;4928516;28;20244;-73
2023/08/11 10:10:35;;;;;;;7.05;3.40;;;;;;;23.17;62.01;95672.06;4933759;28;20252;-73
2023/08/11 10:13:07;;;;;;;5.07;3.40;;;;;;;23.04;63.50;95669.88;4927518;28;20240;-73
2023/08/11 10:15:33;;;;;;;5.57;3.90;;;;;;;22.81;64.51;95667.63;4923005;28;20238;-72
2023/08/11 10:17:59;;;;;;;5.00;3.70;;;;;;;22.64;62.88;95667.75;4933500;28;20240;-71
2023/08/11 10:20:24;;;;;;;6.32;3.65;;;;;;;22.55;63.76;95658.56;4928998;28;20315;-72
2023/08/11 10:22:50;;;;;;;5.75;3.60;;;;;;;22.55;65.70;95662.03;4937054;28;20309;-71
2023/08/11 10:25:16;;;;;;;4.43;3.60;;;;;;;22.56;65.56;95660.19;4923981;28;20240;-72
2023/08/11 10:27:41;;;;;;;6.07;3.65;;;;;;;22.58;67.18;95656.22;4927996;28;20258;-74
2023/08/11 10:30:08;;;;;;;7.57;4.28;;;;;;;22.61;65.53;95649.59;4948993;28;20282;-72
2023/08/11 10:32:34;;;;;;;5.10;3.88;;;;;;;22.85;65.06;95647.34;4951459;28;20253;-72
2023/08/11 10:35:00;;;;;;;5.20;3.65;;;;;;;22.78;65.44;95648.34;4917131;28;20237;-70
2023/08/11 10:37:30;;;;;;;5.13;3.70;;;;;;;22.70;65.49;95645.38;4921663;28;20686;-72
2023/08/11 10:40:05;;;;;;;4.13;3.53;;;;;;;22.63;65.90;95645.59;4932120;28;20220;-72
2023/08/11 10:42:30;;;;;;;7.43;3.60;;;;;;;;;;4933303;28;20766;-72
2023/08/11 10:45:07;;;;;;;5.03;3.80;;;;;;;22.72;63.94;95643.25;4937376;28;20240;-72
2023/08/11 10:47:32;;;;;;;6.00;3.55;;;;;;;22.70;64.69;95638.16;4941650;28;20997;-71
2023/08/11 10:49:58;;;;;;;4.80;3.40;;;;;;;22.68;68.14;95631.47;4971086;28;20228;-71
2023/08/11 10:52:24;;;;;;;6.90;3.83;;;;;;;22.68;66.87;95634.16;4933411;29;20245;-70
2023/08/11 10:54:51;;;;;;;8.43;4.00;;;;;;;22.64;67.36;95636.50;4947221;28;20688;-73
2023/08/11 10:57:16;;;;;;;7.32;3.67;;;;;;;22.60;67.26;95635.41;4960962;28;20702;-71
2023/08/11 10:59:41;;;;;;;4.68;3.70;;;;;;;22.54;67.26;95630.28;5029858;28;20256;-74
2023/08/11 11:02:07;;;;;;;6.85;3.70;;;;;;;22.54;67.38;95631.09;4978085;28;21071;-72
2023/08/11 11:04:33;;;;;;;8.63;3.70;;;;;;;22.55;67.43;95635.38;4919269;29;20229;-71
2023/08/11 11:06:59;;;;;;;7.43;3.55;;;;;;;22.57;68.30;95630.56;4927226;28;20233;-71
2023/08/11 11:09:27;;;;;;;6.78;3.88;;;;;;;22.60;68.73;95639.94;4930845;29;20233;-72
2023/08/11 11:11:53;;;;;;;5.80;3.63;;;;;;;22.52;68.49;95643.88;4945767;28;20261;-72
2023/08/11 11:14:19;;;;;;;8.07;3.97;;;;;;;22.54;67.53;95643.63;4920031;29;20339;-72
2023/08/11 11:16:44;;;;;;;8.55;4.88;;;;;;;22.54;66.70;95646.31;4975318;28;20237;-72
2023/08/11 11:19:10;;;;;;;10.25;6.20;;;;;;;22.55;66.79;95643.38;4920866;28;20235;-72
2023/08/11 11:21:37;;;;;;;6.45;3.60;;;;;;;22.52;65.79;95646.53;4935977;28;20240;-73
2023/08/11 11:24:04;;;;;;;4.65;3.80;;;;;;;22.52;67.69;95638.53;4940314;28;20223;-77
2023/08/11 11:26:30;;;;;;;7.45;3.58;;;;;;;22.60;67.36;95643.41;4924985;28;20236;-76
2023/08/11 11:28:57;;;;;;;7.10;3.70;;;;;;;22.59;68.85;95639.13;4926251;28;20776;-76